sensor_id;sensor_type;location;lat;lon;timestamp;temperature;humidity
27797;DHT22;15177;50.844;4.412;2023-05-07T00:01:46;18.00;99.90
27797;DHT22;15177;50.844;4.412;2023-05-07T00:04:12;17.70;99.90
27797;DHT22;15177;50.844;4.412;2023-05-07T00:06:39;17.60;99.90
27797;DHT22;15177;50.844;4.412;2023-05-07T00:09:05;17.40;99.90
27797;DHT22;15177;50.844;4.412;2023-05-07T00:11:33;17.30;99.90
27797;DHT22;15177;50.844;4.412;2023-05-07T00:13:59;17.20;99.90
27797;DHT22;15177;50.844;4.412;2023-05-07T00:16:25;17.30;99.90
27797;DHT22;15177;50.844;4.412;2023-05-07T00:18:50;17.40;99.90
27797;DHT22;15177;50.844;4.412;2023-05-07T00:21:16;17.40;99.90
27797;DHT22;15177;50.844;4.412;2023-05-07T00:23:42;17.50;99.90
27797;DHT22;15177;50.844;4.412;2023-05-07T00:26:07;17.30;99.90
27797;DHT22;15177;50.844;4.412;2023-05-07T00:28:33;17.30;99.90
27797;DHT22;15177;50.844;4.412;2023-05-07T00:30:59;17.10;99.90
27797;DHT22;15177;50.844;4.412;2023-05-07T00:33:24;16.90;99.90
27797;DHT22;15177;50.844;4.412;2023-05-07T00:35:52;17.00;99.90
27797;DHT22;15177;50.844;4.412;2023-05-07T00:38:17;17.10;99.90
27797;DHT22;15177;50.844;4.412;2023-05-07T00:40:43;17.20;99.90
27797;DHT22;15177;50.844;4.412;2023-05-07T00:43:08;17.30;99.90
27797;DHT22;15177;50.844;4.412;2023-05-07T00:45:35;17.70;99.90
27797;DHT22;15177;50.844;4.412;2023-05-07T00:48:02;17.90;99.90
27797;DHT22;15177;50.844;4.412;2023-05-07T00:50:29;17.90;99.90
27797;DHT22;15177;50.844;4.412;2023-05-07T00:52:55;17.90;99.90
27797;DHT22;15177;50.844;4.412;2023-05-07T00:55:22;17.80;99.90
27797;DHT22;15177;50.844;4.412;2023-05-07T00:57:49;17.90;99.90
27797;DHT22;15177;50.844;4.412;2023-05-07T01:00:16;18.10;99.90
27797;DHT22;15177;50.844;4.412;2023-05-07T01:02:42;18.20;99.90
27797;DHT22;15177;50.844;4.412;2023-05-07T01:05:12;18.40;99.90
27797;DHT22;15177;50.844;4.412;2023-05-07T01:07:40;18.20;99.90
27797;DHT22;15177;50.844;4.412;2023-05-07T01:10:07;17.90;99.90
27797;DHT22;15177;50.844;4.412;2023-05-07T01:12:36;18.00;99.90
27797;DHT22;15177;50.844;4.412;2023-05-07T01:15:03;18.10;99.90
27797;DHT22;15177;50.844;4.412;2023-05-07T01:17:29;18.20;99.90
27797;DHT22;15177;50.844;4.412;2023-05-07T01:19:55;18.30;99.90
27797;DHT22;15177;50.844;4.412;2023-05-07T01:22:31;18.20;99.90
27797;DHT22;15177;50.844;4.412;2023-05-07T01:24:58;18.10;99.90
27797;DHT22;15177;50.844;4.412;2023-05-07T01:27:25;18.00;99.90
27797;DHT22;15177;50.844;4.412;2023-05-07T01:29:51;17.90;99.90
27797;DHT22;15177;50.844;4.412;2023-05-07T01:32:21;17.90;99.90
27797;DHT22;15177;50.844;4.412;2023-05-07T01:34:51;17.70;99.90
27797;DHT22;15177;50.844;4.412;2023-05-07T01:37:18;17.80;99.90
27797;DHT22;15177;50.844;4.412;2023-05-07T01:39:43;17.90;99.90
27797;DHT22;15177;50.844;4.412;2023-05-07T01:42:09;18.00;99.90
27797;DHT22;15177;50.844;4.412;2023-05-07T01:44:35;18.10;99.90
27797;DHT22;15177;50.844;4.412;2023-05-07T01:47:02;18.30;99.90
27797;DHT22;15177;50.844;4.412;2023-05-07T01:49:30;18.30;99.90
27797;DHT22;15177;50.844;4.412;2023-05-07T01:51:56;18.30;99.90
27797;DHT22;15177;50.844;4.412;2023-05-07T01:54:26;18.30;99.90
27797;DHT22;15177;50.844;4.412;2023-05-07T01:56:58;18.10;99.90
27797;DHT22;15177;50.844;4.412;2023-05-07T01:59:25;17.90;99.90
27797;DHT22;15177;50.844;4.412;2023-05-07T02:01:50;17.80;99.90
27797;DHT22;15177;50.844;4.412;2023-05-07T02:04:17;17.70;99.90
27797;DHT22;15177;50.844;4.412;2023-05-07T02:06:42;18.00;99.90
27797;DHT22;15177;50.844;4.412;2023-05-07T02:09:08;18.10;99.90
27797;DHT22;15177;50.844;4.412;2023-05-07T02:11:38;18.20;99.90
27797;DHT22;15177;50.844;4.412;2023-05-07T02:14:05;17.90;99.90
27797;DHT22;15177;50.844;4.412;2023-05-07T02:16:31;17.80;99.90
27797;DHT22;15177;50.844;4.412;2023-05-07T02:18:56;17.80;99.90
27797;DHT22;15177;50.844;4.412;2023-05-07T02:21:25;17.80;99.90
27797;DHT22;15177;50.844;4.412;2023-05-07T02:23:50;18.00;99.90
27797;DHT22;15177;50.844;4.412;2023-05-07T02:26:16;17.90;99.90
27797;DHT22;15177;50.844;4.412;2023-05-07T02:28:42;17.90;99.90
27797;DHT22;15177;50.844;4.412;2023-05-07T02:31:07;17.70;99.90
27797;DHT22;15177;50.844;4.412;2023-05-07T02:33:33;17.70;99.90
27797;DHT22;15177;50.844;4.412;2023-05-07T02:36:06;17.60;99.90
27797;DHT22;15177;50.844;4.412;2023-05-07T02:38:32;17.80;99.90
27797;DHT22;15177;50.844;4.412;2023-05-07T02:40:58;17.60;99.90
27797;DHT22;15177;50.844;4.412;2023-05-07T02:43:23;17.40;99.90
27797;DHT22;15177;50.844;4.412;2023-05-07T02:45:49;17.20;99.90
27797;DHT22;15177;50.844;4.412;2023-05-07T02:48:14;17.00;99.90
27797;DHT22;15177;50.844;4.412;2023-05-07T02:50:40;17.00;99.90
27797;DHT22;15177;50.844;4.412;2023-05-07T02:53:07;16.80;99.90
27797;DHT22;15177;50.844;4.412;2023-05-07T02:55:33;16.90;99.90
27797;DHT22;15177;50.844;4.412;2023-05-07T02:57:59;17.00;99.90
27797;DHT22;15177;50.844;4.412;2023-05-07T03:00:24;17.20;99.90
27797;DHT22;15177;50.844;4.412;2023-05-07T03:02:50;17.40;99.90
27797;DHT22;15177;50.844;4.412;2023-05-07T03:05:16;17.50;99.90
27797;DHT22;15177;50.844;4.412;2023-05-07T03:07:42;17.70;99.90
27797;DHT22;15177;50.844;4.412;2023-05-07T03:10:11;17.60;99.90
27797;DHT22;15177;50.844;4.412;2023-05-07T03:12:37;17.50;99.90
27797;DHT22;15177;50.844;4.412;2023-05-07T03:15:03;17.40;99.90
27797;DHT22;15177;50.844;4.412;2023-05-07T03:17:29;17.20;99.90
27797;DHT22;15177;50.844;4.412;2023-05-07T03:19:54;17.20;99.90
27797;DHT22;15177;50.844;4.412;2023-05-07T03:22:20;17.30;99.90
27797;DHT22;15177;50.844;4.412;2023-05-07T03:24:45;17.20;99.90
27797;DHT22;15177;50.844;4.412;2023-05-07T03:27:11;17.30;99.90
27797;DHT22;15177;50.844;4.412;2023-05-07T03:29:37;17.00;99.90
27797;DHT22;15177;50.844;4.412;2023-05-07T03:32:03;16.90;99.90
27797;DHT22;15177;50.844;4.412;2023-05-07T03:34:28;17.10;99.90
27797;DHT22;15177;50.844;4.412;2023-05-07T03:36:54;17.30;99.90
27797;DHT22;15177;50.844;4.412;2023-05-07T03:39:21;17.50;99.90
27797;DHT22;15177;50.844;4.412;2023-05-07T03:41:47;17.70;99.90
27797;DHT22;15177;50.844;4.412;2023-05-07T03:44:14;17.80;99.90
27797;DHT22;15177;50.844;4.412;2023-05-07T03:46:40;17.80;99.90
27797;DHT22;15177;50.844;4.412;2023-05-07T03:49:05;17.80;99.90
27797;DHT22;15177;50.844;4.412;2023-05-07T03:51:31;17.50;99.90
27797;DHT22;15177;50.844;4.412;2023-05-07T03:53:56;17.20;99.90
27797;DHT22;15177;50.844;4.412;2023-05-07T03:56:23;17.10;99.90
27797;DHT22;15177;50.844;4.412;2023-05-07T03:58:52;17.00;99.90
27797;DHT22;15177;50.844;4.412;2023-05-07T04:01:17;17.00;99.90
27797;DHT22;15177;50.844;4.412;2023-05-07T04:03:43;17.10;99.90
27797;DHT22;15177;50.844;4.412;2023-05-07T04:06:09;17.10;99.90
27797;DHT22;15177;50.844;4.412;2023-05-07T04:08:36;17.30;99.90
27797;DHT22;15177;50.844;4.412;2023-05-07T04:11:03;17.40;99.90
27797;DHT22;15177;50.844;4.412;2023-05-07T04:13:29;17.20;99.90
27797;DHT22;15177;50.844;4.412;2023-05-07T04:15:56;17.10;99.90
27797;DHT22;15177;50.844;4.412;2023-05-07T04:18:22;16.90;99.90
27797;DHT22;15177;50.844;4.412;2023-05-07T04:20:48;17.00;99.90
27797;DHT22;15177;50.844;4.412;2023-05-07T04:23:17;17.00;99.90
27797;DHT22;15177;50.844;4.412;2023-05-07T04:25:42;17.00;99.90
27797;DHT22;15177;50.844;4.412;2023-05-07T04:28:08;17.30;99.90
27797;DHT22;15177;50.844;4.412;2023-05-07T04:30:33;17.30;99.90
27797;DHT22;15177;50.844;4.412;2023-05-07T04:32:59;17.10;99.90
27797;DHT22;15177;50.844;4.412;2023-05-07T04:35:25;16.80;99.90
27797;DHT22;15177;50.844;4.412;2023-05-07T04:37:51;17.00;99.90
27797;DHT22;15177;50.844;4.412;2023-05-07T04:40:16;17.30;99.90
27797;DHT22;15177;50.844;4.412;2023-05-07T04:42:42;17.30;99.90
27797;DHT22;15177;50.844;4.412;2023-05-07T04:45:08;17.50;99.90
27797;DHT22;15177;50.844;4.412;2023-05-07T04:47:35;17.60;99.90
27797;DHT22;15177;50.844;4.412;2023-05-07T04:50:01;17.60;99.90
27797;DHT22;15177;50.844;4.412;2023-05-07T04:52:27;17.70;99.90
27797;DHT22;15177;50.844;4.412;2023-05-07T04:54:53;17.90;99.90
27797;DHT22;15177;50.844;4.412;2023-05-07T04:57:18;17.90;99.90
27797;DHT22;15177;50.844;4.412;2023-05-07T04:59:44;18.00;99.90
27797;DHT22;15177;50.844;4.412;2023-05-07T05:02:10;18.00;99.90
27797;DHT22;15177;50.844;4.412;2023-05-07T05:04:39;18.20;99.90
27797;DHT22;15177;50.844;4.412;2023-05-07T05:07:04;18.20;99.90
27797;DHT22;15177;50.844;4.412;2023-05-07T05:09:30;18.20;99.90
27797;DHT22;15177;50.844;4.412;2023-05-07T05:11:56;18.30;99.90
27797;DHT22;15177;50.844;4.412;2023-05-07T05:14:21;18.40;99.90
27797;DHT22;15177;50.844;4.412;2023-05-07T05:16:47;18.20;99.90
27797;DHT22;15177;50.844;4.412;2023-05-07T05:19:13;18.30;99.90
27797;DHT22;15177;50.844;4.412;2023-05-07T05:21:38;18.40;99.90
27797;DHT22;15177;50.844;4.412;2023-05-07T05:24:04;18.50;99.90
27797;DHT22;15177;50.844;4.412;2023-05-07T05:26:31;18.50;99.90
27797;DHT22;15177;50.844;4.412;2023-05-07T05:28:57;18.70;99.90
27797;DHT22;15177;50.844;4.412;2023-05-07T05:31:22;18.80;99.90
27797;DHT22;15177;50.844;4.412;2023-05-07T05:33:48;18.80;99.90
27797;DHT22;15177;50.844;4.412;2023-05-07T05:36:14;18.60;99.90
27797;DHT22;15177;50.844;4.412;2023-05-07T05:38:40;18.60;99.90
27797;DHT22;15177;50.844;4.412;2023-05-07T05:41:07;18.80;99.90
27797;DHT22;15177;50.844;4.412;2023-05-07T05:43:32;18.80;99.90
27797;DHT22;15177;50.844;4.412;2023-05-07T05:45:58;18.70;99.90
27797;DHT22;15177;50.844;4.412;2023-05-07T05:48:24;18.50;99.90
27797;DHT22;15177;50.844;4.412;2023-05-07T05:50:49;18.40;99.90
27797;DHT22;15177;50.844;4.412;2023-05-07T05:53:15;18.60;99.90
27797;DHT22;15177;50.844;4.412;2023-05-07T05:55:41;18.70;99.90
27797;DHT22;15177;50.844;4.412;2023-05-07T05:58:08;18.70;99.90
27797;DHT22;15177;50.844;4.412;2023-05-07T06:00:34;18.80;99.90
27797;DHT22;15177;50.844;4.412;2023-05-07T06:02:59;18.80;99.90
27797;DHT22;15177;50.844;4.412;2023-05-07T06:05:25;18.90;99.90
27797;DHT22;15177;50.844;4.412;2023-05-07T06:07:51;19.00;99.90
27797;DHT22;15177;50.844;4.412;2023-05-07T06:10:16;19.10;99.90
27797;DHT22;15177;50.844;4.412;2023-05-07T06:12:42;19.20;99.90
27797;DHT22;15177;50.844;4.412;2023-05-07T06:15:09;19.10;99.90
27797;DHT22;15177;50.844;4.412;2023-05-07T06:17:35;19.00;99.90
27797;DHT22;15177;50.844;4.412;2023-05-07T06:20:01;18.90;99.90
27797;DHT22;15177;50.844;4.412;2023-05-07T06:22:26;18.90;99.90
27797;DHT22;15177;50.844;4.412;2023-05-07T06:24:52;18.90;99.90
27797;DHT22;15177;50.844;4.412;2023-05-07T06:27:18;18.80;99.90
27797;DHT22;15177;50.844;4.412;2023-05-07T06:29:43;18.70;99.90
27797;DHT22;15177;50.844;4.412;2023-05-07T06:32:11;18.60;99.90
27797;DHT22;15177;50.844;4.412;2023-05-07T06:34:39;18.60;99.90
27797;DHT22;15177;50.844;4.412;2023-05-07T06:37:05;18.60;99.90
27797;DHT22;15177;50.844;4.412;2023-05-07T06:39:31;18.60;99.90
27797;DHT22;15177;50.844;4.412;2023-05-07T06:41:57;18.60;99.90
27797;DHT22;15177;50.844;4.412;2023-05-07T06:44:24;18.60;99.90
27797;DHT22;15177;50.844;4.412;2023-05-07T06:46:51;18.70;99.90
27797;DHT22;15177;50.844;4.412;2023-05-07T06:49:16;18.70;99.90
27797;DHT22;15177;50.844;4.412;2023-05-07T06:51:42;18.70;99.90
27797;DHT22;15177;50.844;4.412;2023-05-07T06:54:08;18.70;99.90
27797;DHT22;15177;50.844;4.412;2023-05-07T06:56:34;18.70;99.90
27797;DHT22;15177;50.844;4.412;2023-05-07T06:59:02;18.80;99.90
27797;DHT22;15177;50.844;4.412;2023-05-07T07:01:28;18.80;99.90
27797;DHT22;15177;50.844;4.412;2023-05-07T07:03:54;18.70;99.90
27797;DHT22;15177;50.844;4.412;2023-05-07T07:06:20;18.70;99.90
27797;DHT22;15177;50.844;4.412;2023-05-07T07:08:46;18.60;99.90
27797;DHT22;15177;50.844;4.412;2023-05-07T07:11:13;18.40;99.90
27797;DHT22;15177;50.844;4.412;2023-05-07T07:13:38;18.40;99.90
27797;DHT22;15177;50.844;4.412;2023-05-07T07:16:05;18.40;99.90
27797;DHT22;15177;50.844;4.412;2023-05-07T07:18:31;18.30;99.90
27797;DHT22;15177;50.844;4.412;2023-05-07T07:20:56;18.20;99.90
27797;DHT22;15177;50.844;4.412;2023-05-07T07:23:22;18.20;99.90
27797;DHT22;15177;50.844;4.412;2023-05-07T07:25:48;18.00;99.90
27797;DHT22;15177;50.844;4.412;2023-05-07T07:28:15;17.90;99.90
27797;DHT22;15177;50.844;4.412;2023-05-07T07:30:40;17.80;99.90
27797;DHT22;15177;50.844;4.412;2023-05-07T07:33:06;17.70;99.90
27797;DHT22;15177;50.844;4.412;2023-05-07T07:35:32;17.80;99.90
27797;DHT22;15177;50.844;4.412;2023-05-07T07:37:58;17.80;99.90
27797;DHT22;15177;50.844;4.412;2023-05-07T07:40:24;17.90;99.90
27797;DHT22;15177;50.844;4.412;2023-05-07T07:42:52;18.00;99.90
27797;DHT22;15177;50.844;4.412;2023-05-07T07:45:18;18.20;99.90
27797;DHT22;15177;50.844;4.412;2023-05-07T07:47:43;18.30;99.90
27797;DHT22;15177;50.844;4.412;2023-05-07T07:50:09;18.30;99.90
27797;DHT22;15177;50.844;4.412;2023-05-07T07:52:35;18.30;99.90
27797;DHT22;15177;50.844;4.412;2023-05-07T07:55:01;18.40;99.90
27797;DHT22;15177;50.844;4.412;2023-05-07T07:57:27;18.50;99.90
27797;DHT22;15177;50.844;4.412;2023-05-07T07:59:52;18.50;99.90
27797;DHT22;15177;50.844;4.412;2023-05-07T08:02:18;18.60;99.90
27797;DHT22;15177;50.844;4.412;2023-05-07T08:04:44;18.60;99.90
27797;DHT22;15177;50.844;4.412;2023-05-07T08:07:10;18.60;99.90
27797;DHT22;15177;50.844;4.412;2023-05-07T08:09:37;18.70;99.90
27797;DHT22;15177;50.844;4.412;2023-05-07T08:12:03;18.80;99.90
27797;DHT22;15177;50.844;4.412;2023-05-07T08:14:30;18.70;99.90
27797;DHT22;15177;50.844;4.412;2023-05-07T08:16:56;18.70;99.90
27797;DHT22;15177;50.844;4.412;2023-05-07T08:19:22;18.70;99.90
27797;DHT22;15177;50.844;4.412;2023-05-07T08:21:48;18.70;99.90
27797;DHT22;15177;50.844;4.412;2023-05-07T08:24:14;18.70;99.90
27797;DHT22;15177;50.844;4.412;2023-05-07T08:26:40;18.60;99.90
27797;DHT22;15177;50.844;4.412;2023-05-07T08:29:06;18.60;99.90
27797;DHT22;15177;50.844;4.412;2023-05-07T08:31:32;18.70;99.90
27797;DHT22;15177;50.844;4.412;2023-05-07T08:33:58;18.60;99.90
27797;DHT22;15177;50.844;4.412;2023-05-07T08:36:25;18.60;99.90
27797;DHT22;15177;50.844;4.412;2023-05-07T08:38:52;18.80;99.90
27797;DHT22;15177;50.844;4.412;2023-05-07T08:41:18;18.90;99.90
27797;DHT22;15177;50.844;4.412;2023-05-07T08:43:47;18.90;99.90
27797;DHT22;15177;50.844;4.412;2023-05-07T08:46:22;18.80;99.90
27797;DHT22;15177;50.844;4.412;2023-05-07T08:48:48;18.80;99.90
27797;DHT22;15177;50.844;4.412;2023-05-07T08:51:20;18.70;99.90
27797;DHT22;15177;50.844;4.412;2023-05-07T08:53:48;18.70;99.90
27797;DHT22;15177;50.844;4.412;2023-05-07T08:56:15;18.80;99.90
27797;DHT22;15177;50.844;4.412;2023-05-07T08:58:42;18.90;99.90
27797;DHT22;15177;50.844;4.412;2023-05-07T09:01:16;19.00;99.90
27797;DHT22;15177;50.844;4.412;2023-05-07T09:03:44;19.20;99.90
27797;DHT22;15177;50.844;4.412;2023-05-07T09:06:11;19.20;99.90
27797;DHT22;15177;50.844;4.412;2023-05-07T09:08:36;19.40;99.90
27797;DHT22;15177;50.844;4.412;2023-05-07T09:11:02;19.40;99.90
27797;DHT22;15177;50.844;4.412;2023-05-07T09:13:29;19.40;99.90
27797;DHT22;15177;50.844;4.412;2023-05-07T09:15:55;19.20;99.90
27797;DHT22;15177;50.844;4.412;2023-05-07T09:18:20;19.40;99.90
27797;DHT22;15177;50.844;4.412;2023-05-07T09:20:46;19.20;99.90
27797;DHT22;15177;50.844;4.412;2023-05-07T09:23:12;19.20;99.90
27797;DHT22;15177;50.844;4.412;2023-05-07T09:25:39;19.20;99.90
27797;DHT22;15177;50.844;4.412;2023-05-07T09:28:06;19.30;99.90
27797;DHT22;15177;50.844;4.412;2023-05-07T09:30:33;19.40;99.90
27797;DHT22;15177;50.844;4.412;2023-05-07T09:33:00;19.40;99.90
27797;DHT22;15177;50.844;4.412;2023-05-07T09:35:27;19.40;99.90
27797;DHT22;15177;50.844;4.412;2023-05-07T09:37:53;19.40;99.90
27797;DHT22;15177;50.844;4.412;2023-05-07T09:40:21;19.50;99.90
27797;DHT22;15177;50.844;4.412;2023-05-07T09:42:48;19.60;99.90
27797;DHT22;15177;50.844;4.412;2023-05-07T09:45:15;19.70;99.90
27797;DHT22;15177;50.844;4.412;2023-05-07T09:47:42;19.70;99.90
27797;DHT22;15177;50.844;4.412;2023-05-07T09:50:12;19.80;99.90
27797;DHT22;15177;50.844;4.412;2023-05-07T09:52:41;19.80;99.90
27797;DHT22;15177;50.844;4.412;2023-05-07T09:55:11;19.80;99.90
27797;DHT22;15177;50.844;4.412;2023-05-07T09:57:39;19.80;99.90
27797;DHT22;15177;50.844;4.412;2023-05-07T10:00:06;19.90;99.90
27797;DHT22;15177;50.844;4.412;2023-05-07T10:02:34;20.00;99.90
27797;DHT22;15177;50.844;4.412;2023-05-07T10:05:00;20.10;99.90
27797;DHT22;15177;50.844;4.412;2023-05-07T10:07:27;20.10;99.90
27797;DHT22;15177;50.844;4.412;2023-05-07T10:09:55;20.10;99.90
27797;DHT22;15177;50.844;4.412;2023-05-07T10:12:23;20.00;99.90
27797;DHT22;15177;50.844;4.412;2023-05-07T10:14:50;20.00;99.90
27797;DHT22;15177;50.844;4.412;2023-05-07T10:17:18;19.90;99.90
27797;DHT22;15177;50.844;4.412;2023-05-07T10:19:44;19.90;99.90
27797;DHT22;15177;50.844;4.412;2023-05-07T10:22:11;20.10;99.90
27797;DHT22;15177;50.844;4.412;2023-05-07T10:24:42;20.00;99.90
27797;DHT22;15177;50.844;4.412;2023-05-07T10:27:12;20.10;99.90
27797;DHT22;15177;50.844;4.412;2023-05-07T10:32:49;20.40;99.90
27797;DHT22;15177;50.844;4.412;2023-05-07T10:35:29;20.00;99.90
27797;DHT22;15177;50.844;4.412;2023-05-07T10:37:56;20.10;99.90
27797;DHT22;15177;50.844;4.412;2023-05-07T10:40:22;20.10;99.90
27797;DHT22;15177;50.844;4.412;2023-05-07T10:42:59;20.10;99.90
27797;DHT22;15177;50.844;4.412;2023-05-07T10:45:26;20.10;99.90
27797;DHT22;15177;50.844;4.412;2023-05-07T10:48:14;20.20;99.90
27797;DHT22;15177;50.844;4.412;2023-05-07T10:50:41;20.20;99.90
27797;DHT22;15177;50.844;4.412;2023-05-07T10:56:24;20.40;99.90
27797;DHT22;15177;50.844;4.412;2023-05-07T10:58:38;20.30;99.90
27797;DHT22;15177;50.844;4.412;2023-05-07T11:01:04;20.30;99.90
27797;DHT22;15177;50.844;4.412;2023-05-07T11:03:30;20.30;99.90
27797;DHT22;15177;50.844;4.412;2023-05-07T11:06:15;20.30;99.90
27797;DHT22;15177;50.844;4.412;2023-05-07T11:08:57;20.40;99.90
27797;DHT22;15177;50.844;4.412;2023-05-07T11:11:43;20.00;99.90
27797;DHT22;15177;50.844;4.412;2023-05-07T11:14:10;20.30;99.90
27797;DHT22;15177;50.844;4.412;2023-05-07T11:16:36;20.50;99.90
27797;DHT22;15177;50.844;4.412;2023-05-07T11:19:03;20.50;99.90
27797;DHT22;15177;50.844;4.412;2023-05-07T11:21:35;20.60;99.90
27797;DHT22;15177;50.844;4.412;2023-05-07T11:24:02;20.70;99.90
27797;DHT22;15177;50.844;4.412;2023-05-07T11:26:31;20.70;99.90
27797;DHT22;15177;50.844;4.412;2023-05-07T11:29:11;20.70;99.90
27797;DHT22;15177;50.844;4.412;2023-05-07T11:31:37;20.80;99.90
27797;DHT22;15177;50.844;4.412;2023-05-07T11:34:03;20.80;99.90
27797;DHT22;15177;50.844;4.412;2023-05-07T11:36:32;20.80;99.90
27797;DHT22;15177;50.844;4.412;2023-05-07T11:38:58;20.90;99.90
27797;DHT22;15177;50.844;4.412;2023-05-07T11:41:36;21.00;99.90
27797;DHT22;15177;50.844;4.412;2023-05-07T11:44:02;20.90;99.90
27797;DHT22;15177;50.844;4.412;2023-05-07T11:46:28;21.10;99.90
27797;DHT22;15177;50.844;4.412;2023-05-07T11:48:56;21.20;99.90
27797;DHT22;15177;50.844;4.412;2023-05-07T11:51:23;21.20;99.90
27797;DHT22;15177;50.844;4.412;2023-05-07T11:53:50;21.30;99.90
27797;DHT22;15177;50.844;4.412;2023-05-07T11:56:17;21.40;99.90
27797;DHT22;15177;50.844;4.412;2023-05-07T11:58:45;21.40;99.90
27797;DHT22;15177;50.844;4.412;2023-05-07T12:01:12;21.60;99.90
27797;DHT22;15177;50.844;4.412;2023-05-07T12:03:42;21.70;99.90
27797;DHT22;15177;50.844;4.412;2023-05-07T12:06:09;21.70;99.90
27797;DHT22;15177;50.844;4.412;2023-05-07T12:08:37;21.70;99.90
27797;DHT22;15177;50.844;4.412;2023-05-07T12:11:03;21.90;99.90
27797;DHT22;15177;50.844;4.412;2023-05-07T12:13:32;22.10;99.90
27797;DHT22;15177;50.844;4.412;2023-05-07T12:15:57;22.10;99.90
27797;DHT22;15177;50.844;4.412;2023-05-07T12:18:23;22.10;99.90
27797;DHT22;15177;50.844;4.412;2023-05-07T12:20:50;22.10;99.90
27797;DHT22;15177;50.844;4.412;2023-05-07T12:23:16;22.10;99.90
27797;DHT22;15177;50.844;4.412;2023-05-07T12:25:43;22.20;99.90
27797;DHT22;15177;50.844;4.412;2023-05-07T12:28:18;22.20;99.90
27797;DHT22;15177;50.844;4.412;2023-05-07T12:30:46;22.40;99.90
27797;DHT22;15177;50.844;4.412;2023-05-07T12:33:15;22.50;99.90
27797;DHT22;15177;50.844;4.412;2023-05-07T12:35:42;22.40;99.90
27797;DHT22;15177;50.844;4.412;2023-05-07T12:38:13;22.40;99.90
27797;DHT22;15177;50.844;4.412;2023-05-07T12:40:43;22.30;99.90
27797;DHT22;15177;50.844;4.412;2023-05-07T12:43:29;22.30;99.90
27797;DHT22;15177;50.844;4.412;2023-05-07T12:45:56;22.30;99.90
27797;DHT22;15177;50.844;4.412;2023-05-07T12:48:23;22.30;99.90
27797;DHT22;15177;50.844;4.412;2023-05-07T12:50:59;22.10;99.90
27797;DHT22;15177;50.844;4.412;2023-05-07T12:53:26;22.20;99.90
27797;DHT22;15177;50.844;4.412;2023-05-07T12:55:55;22.20;99.90
27797;DHT22;15177;50.844;4.412;2023-05-07T12:58:32;22.20;99.90
27797;DHT22;15177;50.844;4.412;2023-05-07T13:01:00;22.30;99.90
27797;DHT22;15177;50.844;4.412;2023-05-07T13:03:36;22.30;99.90
27797;DHT22;15177;50.844;4.412;2023-05-07T13:08:30;22.10;99.90
27797;DHT22;15177;50.844;4.412;2023-05-07T13:11:00;22.20;99.90
27797;DHT22;15177;50.844;4.412;2023-05-07T13:13:33;22.30;99.90
27797;DHT22;15177;50.844;4.412;2023-05-07T13:16:00;22.20;99.90
27797;DHT22;15177;50.844;4.412;2023-05-07T13:18:26;22.10;99.90
27797;DHT22;15177;50.844;4.412;2023-05-07T13:20:53;22.10;99.90
27797;DHT22;15177;50.844;4.412;2023-05-07T13:23:19;22.00;99.90
27797;DHT22;15177;50.844;4.412;2023-05-07T13:25:44;22.00;99.90
27797;DHT22;15177;50.844;4.412;2023-05-07T13:28:10;22.00;99.90
27797;DHT22;15177;50.844;4.412;2023-05-07T13:30:36;22.00;99.90
27797;DHT22;15177;50.844;4.412;2023-05-07T13:33:03;22.20;99.90
27797;DHT22;15177;50.844;4.412;2023-05-07T13:35:29;22.10;99.90
27797;DHT22;15177;50.844;4.412;2023-05-07T13:37:55;22.10;99.90
27797;DHT22;15177;50.844;4.412;2023-05-07T13:40:22;22.10;99.90
27797;DHT22;15177;50.844;4.412;2023-05-07T13:42:48;22.00;99.90
27797;DHT22;15177;50.844;4.412;2023-05-07T13:45:14;22.20;99.90
27797;DHT22;15177;50.844;4.412;2023-05-07T13:47:41;22.10;99.90
27797;DHT22;15177;50.844;4.412;2023-05-07T13:50:08;22.00;99.90
27797;DHT22;15177;50.844;4.412;2023-05-07T13:52:34;21.90;99.90
27797;DHT22;15177;50.844;4.412;2023-05-07T13:55:00;21.80;99.90
27797;DHT22;15177;50.844;4.412;2023-05-07T13:57:27;21.80;99.90
27797;DHT22;15177;50.844;4.412;2023-05-07T13:59:52;21.90;99.90
27797;DHT22;15177;50.844;4.412;2023-05-07T14:02:18;21.90;99.90
27797;DHT22;15177;50.844;4.412;2023-05-07T14:04:44;21.80;99.90
27797;DHT22;15177;50.844;4.412;2023-05-07T14:07:10;21.60;99.90
27797;DHT22;15177;50.844;4.412;2023-05-07T14:09:36;21.50;99.90
27797;DHT22;15177;50.844;4.412;2023-05-07T14:12:02;21.50;99.90
27797;DHT22;15177;50.844;4.412;2023-05-07T14:14:28;21.40;99.90
27797;DHT22;15177;50.844;4.412;2023-05-07T14:16:55;21.30;99.90
27797;DHT22;15177;50.844;4.412;2023-05-07T14:19:20;21.30;99.90
27797;DHT22;15177;50.844;4.412;2023-05-07T14:21:48;21.10;99.90
27797;DHT22;15177;50.844;4.412;2023-05-07T14:24:14;21.20;99.90
27797;DHT22;15177;50.844;4.412;2023-05-07T14:26:39;21.20;99.90
27797;DHT22;15177;50.844;4.412;2023-05-07T14:29:05;21.30;99.90
27797;DHT22;15177;50.844;4.412;2023-05-07T14:31:30;21.30;99.90
27797;DHT22;15177;50.844;4.412;2023-05-07T14:33:56;21.30;99.90
27797;DHT22;15177;50.844;4.412;2023-05-07T14:36:23;21.30;99.90
27797;DHT22;15177;50.844;4.412;2023-05-07T14:38:52;21.30;99.90
27797;DHT22;15177;50.844;4.412;2023-05-07T14:41:19;21.40;99.90
27797;DHT22;15177;50.844;4.412;2023-05-07T14:43:46;21.50;99.90
27797;DHT22;15177;50.844;4.412;2023-05-07T14:46:16;21.40;99.90
27797;DHT22;15177;50.844;4.412;2023-05-07T14:48:46;21.30;99.90
27797;DHT22;15177;50.844;4.412;2023-05-07T14:51:12;21.30;99.90
27797;DHT22;15177;50.844;4.412;2023-05-07T14:53:38;21.30;99.90
27797;DHT22;15177;50.844;4.412;2023-05-07T14:56:04;21.30;99.90
27797;DHT22;15177;50.844;4.412;2023-05-07T14:58:32;21.40;99.90
27797;DHT22;15177;50.844;4.412;2023-05-07T15:00:58;21.40;99.90
27797;DHT22;15177;50.844;4.412;2023-05-07T15:03:24;21.30;99.90
27797;DHT22;15177;50.844;4.412;2023-05-07T15:05:50;21.40;99.90
27797;DHT22;15177;50.844;4.412;2023-05-07T15:08:17;21.50;99.90
27797;DHT22;15177;50.844;4.412;2023-05-07T15:10:42;21.30;99.90
27797;DHT22;15177;50.844;4.412;2023-05-07T15:13:09;21.50;99.90
27797;DHT22;15177;50.844;4.412;2023-05-07T15:15:35;21.50;99.90
27797;DHT22;15177;50.844;4.412;2023-05-07T15:18:02;21.50;99.90
27797;DHT22;15177;50.844;4.412;2023-05-07T15:20:27;21.50;99.90
27797;DHT22;15177;50.844;4.412;2023-05-07T15:22:53;21.50;99.90
27797;DHT22;15177;50.844;4.412;2023-05-07T15:25:19;21.50;99.90
27797;DHT22;15177;50.844;4.412;2023-05-07T15:27:45;21.60;99.90
27797;DHT22;15177;50.844;4.412;2023-05-07T15:30:11;21.50;99.90
27797;DHT22;15177;50.844;4.412;2023-05-07T15:32:37;21.60;99.90
27797;DHT22;15177;50.844;4.412;2023-05-07T15:35:04;21.40;99.90
27797;DHT22;15177;50.844;4.412;2023-05-07T15:37:30;21.20;99.90